<?xml version="1.0" encoding="UTF-8" standalone="no" ?>
<gpx xmlns="http://www.topografix.com/GPX/1/1" xmlns:xsi="http://www.w3.org/2001/XMLSchema-instance" xsi:schemaLocation="http://www.topografix.com/GPX/1/1 http://www.topografix.com/GPX/1/1/gpx.xsd" version="1.1" creator="VisuGPX - https://www.visugpx.com">
  <metadata>
    <name>St Robert La Sauvetat</name>
  </metadata>
  <trk>
    <name><![CDATA[St Robert 8]]></name>
    <extensions>
      <line xmlns="http://www.topografix.com/GPX/gpx_style/0/2">
        <color>0000FF</color>
        <width>4</width>
      </line>
    </extensions>
    <trkseg>
      <trkpt lat="44.24653" lon="0.79457">
        <ele>192.1</ele>
      </trkpt>
      <trkpt lat="44.24658" lon="0.79422">
        <ele>185.4</ele>
      </trkpt>
      <trkpt lat="44.24666" lon="0.7942">
        <ele>186</ele>
      </trkpt>
      <trkpt lat="44.2467" lon="0.79416">
        <ele>186.1</ele>
      </trkpt>
      <trkpt lat="44.24679" lon="0.79408">
        <ele>186.3</ele>
        <time>2020-12-08T14:37:07.005Z</time>
      </trkpt>
      <trkpt lat="44.24685" lon="0.79401">
        <ele>186.2</ele>
        <time>2020-12-08T14:37:20.009Z</time>
      </trkpt>
      <trkpt lat="44.24696" lon="0.79386">
        <ele>186.2</ele>
        <time>2020-12-08T14:37:34.009Z</time>
      </trkpt>
      <trkpt lat="44.24706" lon="0.79371">
        <ele>186.2</ele>
        <time>2020-12-08T14:37:47.009Z</time>
      </trkpt>
      <trkpt lat="44.24721" lon="0.79356">
        <ele>186.5</ele>
        <time>2020-12-08T14:38:00.009Z</time>
      </trkpt>
      <trkpt lat="44.24733" lon="0.79344">
        <ele>187</ele>
        <time>2020-12-08T14:38:13.009Z</time>
      </trkpt>
      <trkpt lat="44.24746" lon="0.79332">
        <ele>187.6</ele>
        <time>2020-12-08T14:38:26.009Z</time>
      </trkpt>
      <trkpt lat="44.2476" lon="0.79318">
        <ele>187</ele>
        <time>2020-12-08T14:38:39.009Z</time>
      </trkpt>
      <trkpt lat="44.24774" lon="0.79303">
        <ele>186.5</ele>
        <time>2020-12-08T14:38:52.009Z</time>
      </trkpt>
      <trkpt lat="44.24783" lon="0.79291">
        <ele>186.1</ele>
        <time>2020-12-08T14:39:05.009Z</time>
      </trkpt>
      <trkpt lat="44.24783" lon="0.79289">
        <ele>185.9</ele>
        <time>2020-12-08T14:39:19.009Z</time>
      </trkpt>
      <trkpt lat="44.24783" lon="0.79288">
        <ele>185.9</ele>
        <time>2020-12-08T14:39:32.020Z</time>
      </trkpt>
      <trkpt lat="44.2479" lon="0.79272">
        <ele>185.1</ele>
        <time>2020-12-08T14:39:45.020Z</time>
      </trkpt>
      <trkpt lat="44.24796" lon="0.79247">
        <ele>183.7</ele>
        <time>2020-12-08T14:39:58.020Z</time>
      </trkpt>
      <trkpt lat="44.24798" lon="0.79222">
        <ele>183.2</ele>
        <time>2020-12-08T14:40:11.020Z</time>
      </trkpt>
      <trkpt lat="44.24798" lon="0.79198">
        <ele>182.4</ele>
        <time>2020-12-08T14:40:24.020Z</time>
      </trkpt>
      <trkpt lat="44.24797" lon="0.79179">
        <ele>181.8</ele>
        <time>2020-12-08T14:40:37.020Z</time>
      </trkpt>
      <trkpt lat="44.24794" lon="0.79165">
        <ele>181.3</ele>
        <time>2020-12-08T14:40:51.035Z</time>
      </trkpt>
      <trkpt lat="44.24793" lon="0.7916">
        <ele>181.5</ele>
        <time>2020-12-08T14:41:04.046Z</time>
      </trkpt>
      <trkpt lat="44.24788" lon="0.79145">
        <ele>182.1</ele>
        <time>2020-12-08T14:41:17.053Z</time>
      </trkpt>
      <trkpt lat="44.2478" lon="0.79126">
        <ele>182.9</ele>
        <time>2020-12-08T14:41:30.053Z</time>
      </trkpt>
      <trkpt lat="44.2477" lon="0.79106">
        <ele>183.9</ele>
        <time>2020-12-08T14:41:43.053Z</time>
      </trkpt>
      <trkpt lat="44.24758" lon="0.79088">
        <ele>184.8</ele>
        <time>2020-12-08T14:41:56.053Z</time>
      </trkpt>
      <trkpt lat="44.24747" lon="0.79068">
        <ele>185</ele>
        <time>2020-12-08T14:42:09.053Z</time>
      </trkpt>
      <trkpt lat="44.24737" lon="0.79044">
        <ele>184.3</ele>
        <time>2020-12-08T14:42:23.053Z</time>
      </trkpt>
      <trkpt lat="44.24729" lon="0.79023">
        <ele>183.7</ele>
        <time>2020-12-08T14:42:36.053Z</time>
      </trkpt>
      <trkpt lat="44.24721" lon="0.79">
        <ele>182.8</ele>
        <time>2020-12-08T14:42:49.053Z</time>
      </trkpt>
      <trkpt lat="44.24712" lon="0.78977">
        <ele>182.3</ele>
        <time>2020-12-08T14:43:02.053Z</time>
      </trkpt>
      <trkpt lat="44.24705" lon="0.78955">
        <ele>181.9</ele>
        <time>2020-12-08T14:43:15.053Z</time>
      </trkpt>
      <trkpt lat="44.24696" lon="0.78933">
        <ele>181.3</ele>
        <time>2020-12-08T14:43:28.053Z</time>
      </trkpt>
      <trkpt lat="44.24686" lon="0.78913">
        <ele>180.8</ele>
        <time>2020-12-08T14:43:41.053Z</time>
      </trkpt>
      <trkpt lat="44.24673" lon="0.78893">
        <ele>180.7</ele>
        <time>2020-12-08T14:43:55.053Z</time>
      </trkpt>
      <trkpt lat="44.24662" lon="0.78875">
        <ele>181.3</ele>
        <time>2020-12-08T14:44:08.053Z</time>
      </trkpt>
      <trkpt lat="44.2465" lon="0.78855">
        <ele>182.3</ele>
        <time>2020-12-08T14:44:21.053Z</time>
      </trkpt>
      <trkpt lat="44.24641" lon="0.78836">
        <ele>183.2</ele>
        <time>2020-12-08T14:44:34.053Z</time>
      </trkpt>
      <trkpt lat="44.24631" lon="0.78818">
        <ele>184.2</ele>
        <time>2020-12-08T14:44:47.053Z</time>
      </trkpt>
      <trkpt lat="44.24619" lon="0.788">
        <ele>184.8</ele>
        <time>2020-12-08T14:45:00.053Z</time>
      </trkpt>
      <trkpt lat="44.24605" lon="0.78785">
        <ele>184.8</ele>
        <time>2020-12-08T14:45:13.053Z</time>
      </trkpt>
      <trkpt lat="44.24589" lon="0.7877">
        <ele>184.4</ele>
        <time>2020-12-08T14:45:27.053Z</time>
      </trkpt>
      <trkpt lat="44.24573" lon="0.78756">
        <ele>183.3</ele>
        <time>2020-12-08T14:45:40.053Z</time>
      </trkpt>
      <trkpt lat="44.24558" lon="0.78741">
        <ele>182.9</ele>
        <time>2020-12-08T14:45:53.053Z</time>
      </trkpt>
      <trkpt lat="44.24545" lon="0.78721">
        <ele>183.5</ele>
        <time>2020-12-08T14:46:06.053Z</time>
      </trkpt>
      <trkpt lat="44.24536" lon="0.787">
        <ele>184.8</ele>
        <time>2020-12-08T14:46:19.053Z</time>
      </trkpt>
      <trkpt lat="44.24526" lon="0.78679">
        <ele>186.4</ele>
        <time>2020-12-08T14:46:32.053Z</time>
      </trkpt>
      <trkpt lat="44.24512" lon="0.78663">
        <ele>187.1</ele>
        <time>2020-12-08T14:46:45.053Z</time>
      </trkpt>
      <trkpt lat="44.24495" lon="0.78649">
        <ele>187.8</ele>
        <time>2020-12-08T14:46:59.053Z</time>
      </trkpt>
      <trkpt lat="44.24478" lon="0.78638">
        <ele>189.5</ele>
        <time>2020-12-08T14:47:12.053Z</time>
      </trkpt>
      <trkpt lat="44.24459" lon="0.78625">
        <ele>191.4</ele>
        <time>2020-12-08T14:47:25.053Z</time>
      </trkpt>
      <trkpt lat="44.24442" lon="0.78615">
        <ele>193.1</ele>
        <time>2020-12-08T14:47:38.053Z</time>
      </trkpt>
      <trkpt lat="44.24426" lon="0.786">
        <ele>195.2</ele>
        <time>2020-12-08T14:47:51.053Z</time>
      </trkpt>
      <trkpt lat="44.24411" lon="0.78586">
        <ele>196.5</ele>
        <time>2020-12-08T14:48:04.053Z</time>
      </trkpt>
      <trkpt lat="44.24399" lon="0.78573">
        <ele>196.1</ele>
      </trkpt>
      <trkpt lat="44.24385" lon="0.78567">
        <ele>195.5</ele>
      </trkpt>
      <trkpt lat="44.24371" lon="0.78581">
        <ele>195.3</ele>
      </trkpt>
      <trkpt lat="44.24357" lon="0.78601">
        <ele>193.4</ele>
      </trkpt>
      <trkpt lat="44.24349" lon="0.78608">
        <ele>192.5</ele>
      </trkpt>
      <trkpt lat="44.2434" lon="0.78624">
        <ele>190.8</ele>
      </trkpt>
      <trkpt lat="44.24334" lon="0.78626">
        <ele>190.4</ele>
      </trkpt>
      <trkpt lat="44.24328" lon="0.78631">
        <ele>189.5</ele>
        <time>2020-12-08T14:50:55.068Z</time>
      </trkpt>
      <trkpt lat="44.24312" lon="0.78638">
        <ele>187.7</ele>
      </trkpt>
      <trkpt lat="44.243" lon="0.78633">
        <ele>187.1</ele>
      </trkpt>
      <trkpt lat="44.24284" lon="0.78603">
        <ele>187.9</ele>
      </trkpt>
      <trkpt lat="44.24274" lon="0.7858">
        <ele>188.3</ele>
        <time>2020-12-08T14:52:33.470Z</time>
      </trkpt>
      <trkpt lat="44.24263" lon="0.7856">
        <ele>187.2</ele>
        <time>2020-12-08T14:52:46.470Z</time>
      </trkpt>
      <trkpt lat="44.24253" lon="0.78538">
        <ele>186.3</ele>
        <time>2020-12-08T14:52:59.470Z</time>
      </trkpt>
      <trkpt lat="44.24246" lon="0.78519">
        <ele>185.4</ele>
        <time>2020-12-08T14:53:12.470Z</time>
      </trkpt>
      <trkpt lat="44.24239" lon="0.78504">
        <ele>184.4</ele>
        <time>2020-12-08T14:53:25.470Z</time>
      </trkpt>
      <trkpt lat="44.24233" lon="0.78489">
        <ele>183.6</ele>
        <time>2020-12-08T14:53:38.470Z</time>
      </trkpt>
      <trkpt lat="44.24228" lon="0.7847">
        <ele>182.9</ele>
        <time>2020-12-08T14:53:51.470Z</time>
      </trkpt>
      <trkpt lat="44.2422" lon="0.78445">
        <ele>181.9</ele>
        <time>2020-12-08T14:54:05.470Z</time>
      </trkpt>
      <trkpt lat="44.24207" lon="0.78424">
        <ele>180.3</ele>
        <time>2020-12-08T14:54:18.470Z</time>
      </trkpt>
      <trkpt lat="44.24198" lon="0.78405">
        <ele>178.9</ele>
        <time>2020-12-08T14:54:31.470Z</time>
      </trkpt>
      <trkpt lat="44.24193" lon="0.78381">
        <ele>177.7</ele>
        <time>2020-12-08T14:54:44.470Z</time>
      </trkpt>
      <trkpt lat="44.24188" lon="0.78361">
        <ele>176.6</ele>
        <time>2020-12-08T14:54:57.470Z</time>
      </trkpt>
      <trkpt lat="44.24183" lon="0.7834">
        <ele>175.7</ele>
        <time>2020-12-08T14:55:10.470Z</time>
      </trkpt>
      <trkpt lat="44.2418" lon="0.7832">
        <ele>174.6</ele>
        <time>2020-12-08T14:55:23.470Z</time>
      </trkpt>
      <trkpt lat="44.24173" lon="0.78299">
        <ele>172.9</ele>
        <time>2020-12-08T14:55:37.470Z</time>
      </trkpt>
      <trkpt lat="44.24167" lon="0.78277">
        <ele>171.3</ele>
        <time>2020-12-08T14:55:50.470Z</time>
      </trkpt>
      <trkpt lat="44.2416" lon="0.78257">
        <ele>170.2</ele>
      </trkpt>
      <trkpt lat="44.24147" lon="0.78239">
        <ele>169.4</ele>
      </trkpt>
      <trkpt lat="44.24136" lon="0.78223">
        <ele>168.9</ele>
      </trkpt>
      <trkpt lat="44.24122" lon="0.78206">
        <ele>168.4</ele>
      </trkpt>
      <trkpt lat="44.24109" lon="0.78193">
        <ele>167.9</ele>
        <time>2020-12-08T14:56:55.470Z</time>
      </trkpt>
      <trkpt lat="44.24101" lon="0.78182">
        <ele>167.6</ele>
        <time>2020-12-08T14:57:09.470Z</time>
      </trkpt>
      <trkpt lat="44.24092" lon="0.78172">
        <ele>167.3</ele>
        <time>2020-12-08T14:57:22.470Z</time>
      </trkpt>
      <trkpt lat="44.24079" lon="0.78156">
        <ele>166.7</ele>
        <time>2020-12-08T14:57:35.470Z</time>
      </trkpt>
      <trkpt lat="44.24066" lon="0.7814">
        <ele>166.3</ele>
        <time>2020-12-08T14:57:48.470Z</time>
      </trkpt>
      <trkpt lat="44.24021" lon="0.78071">
        <ele>165.6</ele>
      </trkpt>
      <trkpt lat="44.23999" lon="0.78104">
        <ele>166.7</ele>
      </trkpt>
      <trkpt lat="44.23816" lon="0.78473">
        <ele>163.8</ele>
      </trkpt>
      <trkpt lat="44.23741" lon="0.7866">
        <ele>164.6</ele>
      </trkpt>
      <trkpt lat="44.23673" lon="0.78594">
        <ele>151.8</ele>
        <time>2020-12-08T15:07:13.474Z</time>
      </trkpt>
      <trkpt lat="44.23676" lon="0.78609">
        <ele>150</ele>
        <time>2020-12-08T15:16:13.520Z</time>
      </trkpt>
      <trkpt lat="44.23678" lon="0.7862">
        <ele>148.6</ele>
        <time>2020-12-08T15:16:27.520Z</time>
      </trkpt>
      <trkpt lat="44.23668" lon="0.78619">
        <ele>147.6</ele>
        <time>2020-12-08T15:16:40.516Z</time>
      </trkpt>
      <trkpt lat="44.23656" lon="0.78612">
        <ele>148.2</ele>
        <time>2020-12-08T15:16:53.516Z</time>
      </trkpt>
      <trkpt lat="44.23644" lon="0.78608">
        <ele>148.7</ele>
        <time>2020-12-08T15:17:06.516Z</time>
      </trkpt>
      <trkpt lat="44.23628" lon="0.78606">
        <ele>148.6</ele>
        <time>2020-12-08T15:17:19.516Z</time>
      </trkpt>
      <trkpt lat="44.23613" lon="0.7861">
        <ele>147.6</ele>
        <time>2020-12-08T15:17:32.516Z</time>
      </trkpt>
      <trkpt lat="44.23606" lon="0.7863">
        <ele>143.8</ele>
        <time>2020-12-08T15:17:45.516Z</time>
      </trkpt>
      <trkpt lat="44.23601" lon="0.78654">
        <ele>139.1</ele>
        <time>2020-12-08T15:17:59.516Z</time>
      </trkpt>
      <trkpt lat="44.23595" lon="0.78663">
        <ele>137.3</ele>
        <time>2020-12-08T15:18:20.527Z</time>
      </trkpt>
      <trkpt lat="44.23585" lon="0.78675">
        <ele>135.5</ele>
        <time>2020-12-08T15:18:33.527Z</time>
      </trkpt>
      <trkpt lat="44.23573" lon="0.78688">
        <ele>133.1</ele>
        <time>2020-12-08T15:18:46.527Z</time>
      </trkpt>
      <trkpt lat="44.23561" lon="0.78705">
        <ele>129.9</ele>
        <time>2020-12-08T15:18:59.527Z</time>
      </trkpt>
      <trkpt lat="44.23551" lon="0.7872">
        <ele>127</ele>
        <time>2020-12-08T15:19:35.534Z</time>
      </trkpt>
      <trkpt lat="44.23538" lon="0.78733">
        <ele>123.5</ele>
        <time>2020-12-08T15:19:48.534Z</time>
      </trkpt>
      <trkpt lat="44.23521" lon="0.78748">
        <ele>119</ele>
        <time>2020-12-08T15:20:02.534Z</time>
      </trkpt>
      <trkpt lat="44.23504" lon="0.78754">
        <ele>116.1</ele>
        <time>2020-12-08T15:20:15.534Z</time>
      </trkpt>
      <trkpt lat="44.23486" lon="0.78754">
        <ele>114.1</ele>
        <time>2020-12-08T15:20:28.534Z</time>
      </trkpt>
      <trkpt lat="44.23475" lon="0.78751">
        <ele>112.7</ele>
        <time>2020-12-08T15:20:41.534Z</time>
      </trkpt>
      <trkpt lat="44.23462" lon="0.78749">
        <ele>111.5</ele>
        <time>2020-12-08T15:21:07.550Z</time>
      </trkpt>
      <trkpt lat="44.23455" lon="0.78749">
        <ele>110.8</ele>
        <time>2020-12-08T15:21:20.449Z</time>
      </trkpt>
      <trkpt lat="44.23443" lon="0.7875">
        <ele>109.5</ele>
        <time>2020-12-08T15:21:33.449Z</time>
      </trkpt>
      <trkpt lat="44.2344" lon="0.78761">
        <ele>109.6</ele>
        <time>2020-12-08T15:21:47.461Z</time>
      </trkpt>
      <trkpt lat="44.23445" lon="0.78778">
        <ele>111</ele>
        <time>2020-12-08T15:22:00.461Z</time>
      </trkpt>
      <trkpt lat="44.23436" lon="0.78793">
        <ele>110.1</ele>
        <time>2020-12-08T15:22:13.461Z</time>
      </trkpt>
      <trkpt lat="44.23422" lon="0.78804">
        <ele>108</ele>
        <time>2020-12-08T15:22:26.461Z</time>
      </trkpt>
      <trkpt lat="44.23411" lon="0.78821">
        <ele>106.6</ele>
        <time>2020-12-08T15:22:39.461Z</time>
      </trkpt>
      <trkpt lat="44.23402" lon="0.78839">
        <ele>106.7</ele>
        <time>2020-12-08T15:23:12.472Z</time>
      </trkpt>
      <trkpt lat="44.23395" lon="0.78852">
        <ele>107.9</ele>
        <time>2020-12-08T15:23:25.472Z</time>
      </trkpt>
      <trkpt lat="44.23382" lon="0.78843">
        <ele>105.5</ele>
        <time>2020-12-08T15:23:39.472Z</time>
      </trkpt>
      <trkpt lat="44.23373" lon="0.7883">
        <ele>104</ele>
        <time>2020-12-08T15:23:52.472Z</time>
      </trkpt>
      <trkpt lat="44.23364" lon="0.78815">
        <ele>103.9</ele>
        <time>2020-12-08T15:24:05.472Z</time>
      </trkpt>
      <trkpt lat="44.23354" lon="0.78798">
        <ele>104.1</ele>
        <time>2020-12-08T15:24:18.472Z</time>
      </trkpt>
      <trkpt lat="44.23344" lon="0.78781">
        <ele>104.5</ele>
        <time>2020-12-08T15:24:31.472Z</time>
      </trkpt>
      <trkpt lat="44.23336" lon="0.78774">
        <ele>104.7</ele>
        <time>2020-12-08T15:24:44.472Z</time>
      </trkpt>
      <trkpt lat="44.23324" lon="0.78771">
        <ele>104.8</ele>
        <time>2020-12-08T15:24:57.472Z</time>
      </trkpt>
      <trkpt lat="44.23317" lon="0.78773">
        <ele>104.7</ele>
        <time>2020-12-08T15:25:11.472Z</time>
      </trkpt>
      <trkpt lat="44.23304" lon="0.78776">
        <ele>104.5</ele>
        <time>2020-12-08T15:25:24.472Z</time>
      </trkpt>
      <trkpt lat="44.23295" lon="0.78786">
        <ele>103.9</ele>
        <time>2020-12-08T15:25:45.483Z</time>
      </trkpt>
      <trkpt lat="44.23281" lon="0.78805">
        <ele>102.5</ele>
        <time>2020-12-08T15:25:58.483Z</time>
      </trkpt>
      <trkpt lat="44.23269" lon="0.78826">
        <ele>100.8</ele>
        <time>2020-12-08T15:26:11.483Z</time>
      </trkpt>
      <trkpt lat="44.23259" lon="0.78844">
        <ele>100</ele>
        <time>2020-12-08T15:26:24.483Z</time>
      </trkpt>
      <trkpt lat="44.23247" lon="0.78861">
        <ele>99.9</ele>
        <time>2020-12-08T15:26:37.483Z</time>
      </trkpt>
      <trkpt lat="44.23235" lon="0.7888">
        <ele>100.9</ele>
        <time>2020-12-08T15:26:51.483Z</time>
      </trkpt>
      <trkpt lat="44.23224" lon="0.78897">
        <ele>101.9</ele>
        <time>2020-12-08T15:27:04.483Z</time>
      </trkpt>
      <trkpt lat="44.23212" lon="0.78916">
        <ele>103.1</ele>
        <time>2020-12-08T15:27:17.483Z</time>
      </trkpt>
      <trkpt lat="44.23206" lon="0.78924">
        <ele>103.5</ele>
        <time>2020-12-08T15:27:30.483Z</time>
      </trkpt>
      <trkpt lat="44.23194" lon="0.78943">
        <ele>104.5</ele>
        <time>2020-12-08T15:27:43.483Z</time>
      </trkpt>
      <trkpt lat="44.23182" lon="0.78961">
        <ele>105.3</ele>
        <time>2020-12-08T15:27:56.483Z</time>
      </trkpt>
      <trkpt lat="44.23172" lon="0.78983">
        <ele>105.8</ele>
        <time>2020-12-08T15:28:09.483Z</time>
      </trkpt>
      <trkpt lat="44.23163" lon="0.79007">
        <ele>106.7</ele>
        <time>2020-12-08T15:28:23.483Z</time>
      </trkpt>
      <trkpt lat="44.23154" lon="0.79032">
        <ele>108.3</ele>
        <time>2020-12-08T15:28:36.483Z</time>
      </trkpt>
      <trkpt lat="44.23145" lon="0.79054">
        <ele>110</ele>
        <time>2020-12-08T15:28:49.483Z</time>
      </trkpt>
      <trkpt lat="44.23139" lon="0.79079">
        <ele>110.5</ele>
        <time>2020-12-08T15:29:02.483Z</time>
      </trkpt>
      <trkpt lat="44.23139" lon="0.79104">
        <ele>108.3</ele>
        <time>2020-12-08T15:29:15.483Z</time>
      </trkpt>
      <trkpt lat="44.2314" lon="0.79126">
        <ele>105.7</ele>
        <time>2020-12-08T15:29:28.483Z</time>
      </trkpt>
      <trkpt lat="44.23141" lon="0.79152">
        <ele>102.7</ele>
        <time>2020-12-08T15:30:44.494Z</time>
      </trkpt>
      <trkpt lat="44.23141" lon="0.7918">
        <ele>100.2</ele>
        <time>2020-12-08T15:31:05.501Z</time>
      </trkpt>
      <trkpt lat="44.23141" lon="0.79207">
        <ele>98.4</ele>
        <time>2020-12-08T15:31:18.501Z</time>
      </trkpt>
      <trkpt lat="44.23141" lon="0.79235">
        <ele>96.4</ele>
        <time>2020-12-08T15:31:31.501Z</time>
      </trkpt>
      <trkpt lat="44.23143" lon="0.79261">
        <ele>94.2</ele>
        <time>2020-12-08T15:31:44.501Z</time>
      </trkpt>
      <trkpt lat="44.23141" lon="0.79287">
        <ele>92.6</ele>
        <time>2020-12-08T15:31:57.501Z</time>
      </trkpt>
      <trkpt lat="44.23139" lon="0.7931">
        <ele>91.2</ele>
        <time>2020-12-08T15:32:10.501Z</time>
      </trkpt>
      <trkpt lat="44.23138" lon="0.79333">
        <ele>89.5</ele>
        <time>2020-12-08T15:32:23.501Z</time>
      </trkpt>
      <trkpt lat="44.23132" lon="0.7936">
        <ele>89</ele>
        <time>2020-12-08T15:32:37.501Z</time>
      </trkpt>
      <trkpt lat="44.23121" lon="0.79392">
        <ele>87.9</ele>
      </trkpt>
      <trkpt lat="44.23142" lon="0.79398">
        <ele>87.2</ele>
      </trkpt>
      <trkpt lat="44.23145" lon="0.79409">
        <ele>86.9</ele>
        <time>2020-12-08T15:33:16.501Z</time>
      </trkpt>
      <trkpt lat="44.23132" lon="0.79422">
        <ele>86.7</ele>
        <time>2020-12-08T15:33:29.501Z</time>
      </trkpt>
      <trkpt lat="44.23119" lon="0.79435">
        <ele>86.8</ele>
        <time>2020-12-08T15:33:42.501Z</time>
      </trkpt>
      <trkpt lat="44.23105" lon="0.79449">
        <ele>86.5</ele>
        <time>2020-12-08T15:33:55.501Z</time>
      </trkpt>
      <trkpt lat="44.23093" lon="0.79462">
        <ele>86</ele>
        <time>2020-12-08T15:34:09.501Z</time>
      </trkpt>
      <trkpt lat="44.23082" lon="0.79477">
        <ele>85.3</ele>
        <time>2020-12-08T15:34:22.501Z</time>
      </trkpt>
      <trkpt lat="44.23074" lon="0.79488">
        <ele>85</ele>
        <time>2020-12-08T15:34:35.501Z</time>
      </trkpt>
      <trkpt lat="44.23066" lon="0.79497">
        <ele>84.7</ele>
        <time>2020-12-08T15:34:53.497Z</time>
      </trkpt>
      <trkpt lat="44.23058" lon="0.79505">
        <ele>84.7</ele>
        <time>2020-12-08T15:35:06.509Z</time>
      </trkpt>
      <trkpt lat="44.23051" lon="0.79515">
        <ele>85</ele>
        <time>2020-12-08T15:35:19.509Z</time>
      </trkpt>
      <trkpt lat="44.23041" lon="0.79526">
        <ele>84.9</ele>
        <time>2020-12-08T15:35:32.509Z</time>
      </trkpt>
      <trkpt lat="44.23031" lon="0.79542">
        <ele>84.6</ele>
        <time>2020-12-08T15:35:46.509Z</time>
      </trkpt>
      <trkpt lat="44.23019" lon="0.79556">
        <ele>83.6</ele>
        <time>2020-12-08T15:35:59.509Z</time>
      </trkpt>
      <trkpt lat="44.23007" lon="0.79568">
        <ele>82.2</ele>
        <time>2020-12-08T15:36:12.509Z</time>
      </trkpt>
      <trkpt lat="44.22996" lon="0.79577">
        <ele>81.1</ele>
        <time>2020-12-08T15:36:25.509Z</time>
      </trkpt>
      <trkpt lat="44.22989" lon="0.7958">
        <ele>80.9</ele>
        <time>2020-12-08T15:36:38.509Z</time>
      </trkpt>
      <trkpt lat="44.22978" lon="0.79597">
        <ele>81.2</ele>
        <time>2020-12-08T15:36:51.509Z</time>
      </trkpt>
      <trkpt lat="44.22968" lon="0.79613">
        <ele>81.5</ele>
        <time>2020-12-08T15:37:04.509Z</time>
      </trkpt>
      <trkpt lat="44.22954" lon="0.79629">
        <ele>81</ele>
        <time>2020-12-08T15:37:27.524Z</time>
      </trkpt>
      <trkpt lat="44.22942" lon="0.79637">
        <ele>80.1</ele>
        <time>2020-12-08T15:37:47.535Z</time>
      </trkpt>
      <trkpt lat="44.22939" lon="0.79645">
        <ele>79.9</ele>
        <time>2020-12-08T15:38:00.535Z</time>
      </trkpt>
      <trkpt lat="44.22928" lon="0.7966">
        <ele>78.6</ele>
        <time>2020-12-08T15:38:13.535Z</time>
      </trkpt>
      <trkpt lat="44.22919" lon="0.79675">
        <ele>77.3</ele>
        <time>2020-12-08T15:38:26.535Z</time>
      </trkpt>
      <trkpt lat="44.22909" lon="0.79692">
        <ele>76.9</ele>
        <time>2020-12-08T15:38:39.535Z</time>
      </trkpt>
      <trkpt lat="44.22899" lon="0.79709">
        <ele>76.6</ele>
        <time>2020-12-08T15:38:52.535Z</time>
      </trkpt>
      <trkpt lat="44.22891" lon="0.79727">
        <ele>76.3</ele>
        <time>2020-12-08T15:39:05.535Z</time>
      </trkpt>
      <trkpt lat="44.22879" lon="0.79746">
        <ele>75.7</ele>
        <time>2020-12-08T15:39:19.535Z</time>
      </trkpt>
      <trkpt lat="44.22868" lon="0.79764">
        <ele>75.3</ele>
        <time>2020-12-08T15:39:32.535Z</time>
      </trkpt>
      <trkpt lat="44.22857" lon="0.79783">
        <ele>74.9</ele>
        <time>2020-12-08T15:39:45.535Z</time>
      </trkpt>
      <trkpt lat="44.22845" lon="0.79802">
        <ele>74.5</ele>
        <time>2020-12-08T15:40:05.542Z</time>
      </trkpt>
      <trkpt lat="44.22833" lon="0.79823">
        <ele>74</ele>
        <time>2020-12-08T15:40:33.556Z</time>
      </trkpt>
      <trkpt lat="44.2282" lon="0.79844">
        <ele>73.9</ele>
        <time>2020-12-08T15:40:46.556Z</time>
      </trkpt>
      <trkpt lat="44.22807" lon="0.7986">
        <ele>73.7</ele>
        <time>2020-12-08T15:41:20.574Z</time>
      </trkpt>
      <trkpt lat="44.22788" lon="0.79876">
        <ele>73.1</ele>
      </trkpt>
      <trkpt lat="44.22746" lon="0.79856">
        <ele>73.7</ele>
      </trkpt>
      <trkpt lat="44.22739" lon="0.79847">
        <ele>72.5</ele>
      </trkpt>
      <trkpt lat="44.22699" lon="0.79943">
        <ele>70.9</ele>
      </trkpt>
      <trkpt lat="44.22653" lon="0.7992">
        <ele>71.9</ele>
      </trkpt>
      <trkpt lat="44.2264" lon="0.80011">
        <ele>70</ele>
      </trkpt>
      <trkpt lat="44.22618" lon="0.80004">
        <ele>70</ele>
      </trkpt>
      <trkpt lat="44.22592" lon="0.79972">
        <ele>70</ele>
      </trkpt>
      <trkpt lat="44.22571" lon="0.79951">
        <ele>70.4</ele>
      </trkpt>
      <trkpt lat="44.22512" lon="0.80084">
        <ele>69</ele>
      </trkpt>
      <trkpt lat="44.22461" lon="0.80201">
        <ele>69.4</ele>
      </trkpt>
      <trkpt lat="44.22453" lon="0.80252">
        <ele>69.7</ele>
      </trkpt>
      <trkpt lat="44.22418" lon="0.80303">
        <ele>70</ele>
      </trkpt>
      <trkpt lat="44.22344" lon="0.80413">
        <ele>75.8</ele>
      </trkpt>
      <trkpt lat="44.22438" lon="0.80479">
        <ele>77.6</ele>
      </trkpt>
      <trkpt lat="44.22517" lon="0.80546">
        <ele>79.9</ele>
      </trkpt>
      <trkpt lat="44.22629" lon="0.80604">
        <ele>83.4</ele>
      </trkpt>
      <trkpt lat="44.22738" lon="0.80622">
        <ele>78.7</ele>
      </trkpt>
      <trkpt lat="44.22743" lon="0.80632">
        <ele>79.5</ele>
      </trkpt>
      <trkpt lat="44.22798" lon="0.8063">
        <ele>77.1</ele>
      </trkpt>
      <trkpt lat="44.22837" lon="0.80653">
        <ele>76.4</ele>
      </trkpt>
      <trkpt lat="44.22913" lon="0.80724">
        <ele>79.3</ele>
      </trkpt>
      <trkpt lat="44.23079" lon="0.80812">
        <ele>82.3</ele>
      </trkpt>
      <trkpt lat="44.23271" lon="0.80809">
        <ele>79.6</ele>
      </trkpt>
      <trkpt lat="44.23332" lon="0.80821">
        <ele>76.7</ele>
      </trkpt>
      <trkpt lat="44.23372" lon="0.80847">
        <ele>78</ele>
      </trkpt>
      <trkpt lat="44.23446" lon="0.80959">
        <ele>83.4</ele>
      </trkpt>
      <trkpt lat="44.23572" lon="0.81067">
        <ele>78.3</ele>
        <time>2020-12-08T14:09:57.000Z</time>
      </trkpt>
      <trkpt lat="44.23694" lon="0.80825">
        <ele>72.7</ele>
      </trkpt>
      <trkpt lat="44.23842" lon="0.80619">
        <ele>70.9</ele>
        <time>2020-12-08T14:10:10.007Z</time>
      </trkpt>
      <trkpt lat="44.23878" lon="0.80534">
        <ele>71</ele>
      </trkpt>
      <trkpt lat="44.23902" lon="0.80438">
        <ele>72.7</ele>
      </trkpt>
      <trkpt lat="44.23924" lon="0.80295">
        <ele>94.2</ele>
      </trkpt>
      <trkpt lat="44.23983" lon="0.80164">
        <ele>107.7</ele>
        <time>2020-12-08T14:10:36.007Z</time>
      </trkpt>
      <trkpt lat="44.23998" lon="0.80181">
        <ele>106.4</ele>
        <time>2020-12-08T14:10:49.007Z</time>
      </trkpt>
      <trkpt lat="44.24011" lon="0.80194">
        <ele>106.8</ele>
        <time>2020-12-08T14:11:03.007Z</time>
      </trkpt>
      <trkpt lat="44.24021" lon="0.80199">
        <ele>107.8</ele>
        <time>2020-12-08T14:11:16.007Z</time>
      </trkpt>
      <trkpt lat="44.24031" lon="0.80198">
        <ele>109.5</ele>
        <time>2020-12-08T14:11:29.007Z</time>
      </trkpt>
      <trkpt lat="44.24041" lon="0.80194">
        <ele>111.4</ele>
        <time>2020-12-08T14:11:42.007Z</time>
      </trkpt>
      <trkpt lat="44.24047" lon="0.80192">
        <ele>112.6</ele>
        <time>2020-12-08T14:11:55.007Z</time>
      </trkpt>
      <trkpt lat="44.24057" lon="0.80194">
        <ele>113.9</ele>
        <time>2020-12-08T14:12:08.007Z</time>
      </trkpt>
      <trkpt lat="44.24067" lon="0.80194">
        <ele>115.6</ele>
        <time>2020-12-08T14:12:21.007Z</time>
      </trkpt>
      <trkpt lat="44.24078" lon="0.80195">
        <ele>117.1</ele>
        <time>2020-12-08T14:12:34.007Z</time>
      </trkpt>
      <trkpt lat="44.24089" lon="0.802">
        <ele>118.4</ele>
        <time>2020-12-08T14:12:48.007Z</time>
      </trkpt>
      <trkpt lat="44.24097" lon="0.80191">
        <ele>120.8</ele>
        <time>2020-12-08T14:13:01.007Z</time>
      </trkpt>
      <trkpt lat="44.241" lon="0.80184">
        <ele>122.2</ele>
        <time>2020-12-08T14:13:14.007Z</time>
      </trkpt>
      <trkpt lat="44.24103" lon="0.80175">
        <ele>124</ele>
        <time>2020-12-08T14:13:27.007Z</time>
      </trkpt>
      <trkpt lat="44.24104" lon="0.80167">
        <ele>125.3</ele>
        <time>2020-12-08T14:13:40.007Z</time>
      </trkpt>
      <trkpt lat="44.24108" lon="0.80157">
        <ele>127.6</ele>
        <time>2020-12-08T14:13:53.007Z</time>
      </trkpt>
      <trkpt lat="44.24109" lon="0.80146">
        <ele>129.5</ele>
        <time>2020-12-08T14:14:06.007Z</time>
      </trkpt>
      <trkpt lat="44.24111" lon="0.80132">
        <ele>132.3</ele>
        <time>2020-12-08T14:14:20.007Z</time>
      </trkpt>
      <trkpt lat="44.24119" lon="0.80123">
        <ele>135.4</ele>
        <time>2020-12-08T14:14:33.007Z</time>
      </trkpt>
      <trkpt lat="44.2413" lon="0.80119">
        <ele>138.1</ele>
        <time>2020-12-08T14:14:46.007Z</time>
      </trkpt>
      <trkpt lat="44.24141" lon="0.80118">
        <ele>140.5</ele>
        <time>2020-12-08T14:14:59.007Z</time>
      </trkpt>
      <trkpt lat="44.24149" lon="0.80117">
        <ele>142.3</ele>
        <time>2020-12-08T14:15:12.007Z</time>
      </trkpt>
      <trkpt lat="44.24161" lon="0.80117">
        <ele>144.6</ele>
        <time>2020-12-08T14:15:25.007Z</time>
      </trkpt>
      <trkpt lat="44.24173" lon="0.80113">
        <ele>146.3</ele>
        <time>2020-12-08T14:15:38.007Z</time>
      </trkpt>
      <trkpt lat="44.24186" lon="0.80115">
        <ele>145.6</ele>
        <time>2020-12-08T14:15:52.007Z</time>
      </trkpt>
      <trkpt lat="44.24196" lon="0.80113">
        <ele>145.9</ele>
        <time>2020-12-08T14:16:05.007Z</time>
      </trkpt>
      <trkpt lat="44.24208" lon="0.80112">
        <ele>145.9</ele>
        <time>2020-12-08T14:16:18.007Z</time>
      </trkpt>
      <trkpt lat="44.24218" lon="0.80109">
        <ele>146.2</ele>
        <time>2020-12-08T14:16:31.007Z</time>
      </trkpt>
      <trkpt lat="44.2423" lon="0.80108">
        <ele>146.3</ele>
        <time>2020-12-08T14:16:44.014Z</time>
      </trkpt>
      <trkpt lat="44.24245" lon="0.80114">
        <ele>144.7</ele>
        <time>2020-12-08T14:16:57.014Z</time>
      </trkpt>
      <trkpt lat="44.24256" lon="0.80114">
        <ele>144.3</ele>
        <time>2020-12-08T14:17:10.014Z</time>
      </trkpt>
      <trkpt lat="44.24258" lon="0.80113">
        <ele>144.3</ele>
        <time>2020-12-08T14:17:24.014Z</time>
      </trkpt>
      <trkpt lat="44.24262" lon="0.80098">
        <ele>147.5</ele>
        <time>2020-12-08T14:17:37.021Z</time>
      </trkpt>
      <trkpt lat="44.24266" lon="0.80088">
        <ele>149.8</ele>
        <time>2020-12-08T14:17:50.021Z</time>
      </trkpt>
      <trkpt lat="44.24277" lon="0.80076">
        <ele>151.4</ele>
        <time>2020-12-08T14:18:03.021Z</time>
      </trkpt>
      <trkpt lat="44.24282" lon="0.80065">
        <ele>153</ele>
        <time>2020-12-08T14:18:16.021Z</time>
      </trkpt>
      <trkpt lat="44.24287" lon="0.80055">
        <ele>154.6</ele>
        <time>2020-12-08T14:18:29.021Z</time>
      </trkpt>
      <trkpt lat="44.24289" lon="0.80045">
        <ele>156.4</ele>
        <time>2020-12-08T14:18:42.021Z</time>
      </trkpt>
      <trkpt lat="44.24296" lon="0.80032">
        <ele>158.3</ele>
        <time>2020-12-08T14:18:56.021Z</time>
      </trkpt>
      <trkpt lat="44.24308" lon="0.8002">
        <ele>159.8</ele>
        <time>2020-12-08T14:19:09.021Z</time>
      </trkpt>
      <trkpt lat="44.24316" lon="0.80004">
        <ele>162.2</ele>
        <time>2020-12-08T14:19:22.021Z</time>
      </trkpt>
      <trkpt lat="44.24326" lon="0.79991">
        <ele>163.1</ele>
        <time>2020-12-08T14:19:35.021Z</time>
      </trkpt>
      <trkpt lat="44.24336" lon="0.7998">
        <ele>163.3</ele>
        <time>2020-12-08T14:19:48.021Z</time>
      </trkpt>
      <trkpt lat="44.24348" lon="0.79971">
        <ele>163.2</ele>
        <time>2020-12-08T14:20:01.021Z</time>
      </trkpt>
      <trkpt lat="44.24361" lon="0.79965">
        <ele>162.8</ele>
        <time>2020-12-08T14:20:14.021Z</time>
      </trkpt>
      <trkpt lat="44.24374" lon="0.7996">
        <ele>162.4</ele>
        <time>2020-12-08T14:20:28.021Z</time>
      </trkpt>
      <trkpt lat="44.2438" lon="0.79954">
        <ele>162.5</ele>
        <time>2020-12-08T14:20:41.021Z</time>
      </trkpt>
      <trkpt lat="44.24388" lon="0.79936">
        <ele>163.7</ele>
        <time>2020-12-08T14:20:54.032Z</time>
      </trkpt>
      <trkpt lat="44.24394" lon="0.79919">
        <ele>164.9</ele>
        <time>2020-12-08T14:21:07.032Z</time>
      </trkpt>
      <trkpt lat="44.24401" lon="0.79903">
        <ele>165.1</ele>
        <time>2020-12-08T14:21:20.032Z</time>
      </trkpt>
      <trkpt lat="44.24398" lon="0.79883">
        <ele>168.8</ele>
        <time>2020-12-08T14:21:33.032Z</time>
      </trkpt>
      <trkpt lat="44.24609" lon="0.80019">
        <ele>174.9</ele>
      </trkpt>
      <trkpt lat="44.24699" lon="0.80023">
        <ele>172.6</ele>
      </trkpt>
      <trkpt lat="44.24774" lon="0.80048">
        <ele>165.9</ele>
      </trkpt>
      <trkpt lat="44.24745" lon="0.79932">
        <ele>174</ele>
      </trkpt>
      <trkpt lat="44.2479" lon="0.79754">
        <ele>181.3</ele>
        <time>2020-12-08T14:22:39.032Z</time>
      </trkpt>
      <trkpt lat="44.24809" lon="0.79586">
        <ele>188.7</ele>
      </trkpt>
      <trkpt lat="44.24672" lon="0.79491">
        <ele>192.3</ele>
        <time>2020-12-08T14:34:30.080Z</time>
      </trkpt>
      <trkpt lat="44.24653" lon="0.79457">
        <ele>192.1</ele>
      </trkpt>
    </trkseg>
  </trk>
</gpx>